Time;durP1;ratioP1;P1;durP2;ratioP2;P2;SDS_P1;SDS_P2;PMS_P1;PMS_P2;Temp;Humidity;BMP_temperature;BMP_pressure;BME280_temperature;BME280_humidity;BME280_pressure;Samples;Min_cycle;Max_cycle;Signal;HPM_P1;HPM_P2
2023/12/23 00:00:11;;;;;;;2.60;1.02;;;;;;;13.17;32.02;93356.53;5078330;28;20388;-83
2023/12/23 00:02:37;;;;;;;3.33;0.70;;;;;;;13.41;31.80;93352.66;5061973;28;20028;-83
2023/12/23 00:05:02;;;;;;;1.90;0.57;;;;;;;13.21;31.88;93341.69;5062000;28;20131;-83
2023/12/23 00:07:28;;;;;;;1.55;0.60;;;;;;;13.12;31.68;93361.91;5077864;28;20075;-84
2023/12/23 00:09:53;;;;;;;1.27;0.68;;;;;;;13.64;30.85;93355.16;5078390;28;20027;-83
2023/12/23 00:12:19;;;;;;;6.53;0.80;;;;;;;13.12;31.70;93341.66;5078539;28;20033;-84
2023/12/23 00:14:44;;;;;;;0.90;0.63;;;;;;;13.05;32.01;93343.22;5094096;28;20020;-84
2023/12/23 00:17:10;;;;;;;1.00;0.50;;;;;;;13.66;31.16;93331.94;5097219;28;20027;-84
2023/12/23 00:19:35;;;;;;;1.75;0.60;;;;;;;13.46;31.22;93349.91;5099488;28;20034;-84
2023/12/23 00:22:01;;;;;;;5.03;0.98;;;;;;;13.74;30.91;93339.06;5099606;28;20035;-82
2023/12/23 00:24:29;;;;;;;2.05;0.40;;;;;;;13.70;31.11;93353.91;5089619;28;20063;-83
2023/12/23 00:26:57;;;;;;;1.65;0.50;;;;;;;13.83;30.68;93368.75;5097745;28;20059;-83
2023/12/23 00:29:24;;;;;;;3.33;0.60;;;;;;;13.69;31.04;93366.31;5098311;28;20464;-83
2023/12/23 00:31:49;;;;;;;5.30;0.60;;;;;;;13.90;30.90;93368.28;5098213;28;20047;-83
2023/12/23 00:34:15;;;;;;;0.75;0.40;;;;;;;13.46;31.48;93370.97;5097546;28;20028;-83
2023/12/23 00:36:40;;;;;;;1.75;0.50;;;;;;;13.19;31.92;93366.72;5082188;28;20028;-83
2023/12/23 00:39:06;;;;;;;3.28;1.05;;;;;;;13.94;30.39;93368.44;5076619;28;20036;-83
2023/12/23 00:41:31;;;;;;;1.08;0.55;;;;;;;13.45;31.34;93368.63;5077590;28;20044;-84
2023/12/23 00:43:57;;;;;;;0.60;0.47;;;;;;;13.16;31.58;93370.75;5077902;28;20028;-84
2023/12/23 00:46:22;;;;;;;1.58;0.50;;;;;;;13.35;31.04;93365.22;5097172;28;20360;-84
2023/12/23 00:48:48;;;;;;;4.28;0.52;;;;;;;13.23;31.49;93362.41;5097753;28;20026;-84
2023/12/23 00:51:13;;;;;;;1.23;0.70;;;;;;;12.93;31.87;93370.09;5097766;28;20051;-84
2023/12/23 00:53:39;;;;;;;0.30;0.30;;;;;;;13.47;30.68;93382.25;5088251;28;20082;-83
2023/12/23 00:56:05;;;;;;;0.60;0.20;;;;;;;14.48;29.61;93375.13;5080188;28;20442;-83
2023/12/23 00:58:30;;;;;;;0.52;0.38;;;;;;;14.03;30.52;93390.28;5076905;28;20341;-83
2023/12/23 01:00:56;;;;;;;0.32;0.32;;;;;;;14.13;30.25;93373.38;5077450;28;20022;-84
2023/12/23 01:03:21;;;;;;;2.88;0.40;;;;;;;13.71;31.38;93382.56;5060959;28;20031;-84
2023/12/23 01:05:46;;;;;;;1.58;0.40;;;;;;;13.88;30.37;93374.97;5085264;28;20028;-83
2023/12/23 01:08:12;;;;;;;0.50;0.30;;;;;;;13.93;30.39;93388.75;5076949;28;20028;-84
2023/12/23 01:10:37;;;;;;;0.82;0.40;;;;;;;14.72;29.44;93395.69;5077283;28;20036;-83
2023/12/23 01:13:03;;;;;;;0.95;0.45;;;;;;;14.41;30.12;93378.25;5077359;28;20036;-84
2023/12/23 01:15:28;;;;;;;1.10;0.40;;;;;;;14.30;30.13;93390.22;5062169;28;20430;-84
2023/12/23 01:17:54;;;;;;;1.50;0.30;;;;;;;14.14;30.33;93403.88;5082924;28;20082;-84
2023/12/23 01:20:19;;;;;;;1.20;0.30;;;;;;;13.95;30.58;93412.91;5085820;28;20330;-84
2023/12/23 01:22:45;;;;;;;0.65;0.43;;;;;;;13.84;30.13;93411.69;5097217;28;20086;-84
2023/12/23 01:25:10;;;;;;;0.70;0.40;;;;;;;13.80;30.32;93419.41;5097183;28;20035;-84
2023/12/23 01:27:35;;;;;;;3.25;0.60;;;;;;;13.47;31.48;93417.25;5088713;28;20029;-84
2023/12/23 01:30:01;;;;;;;2.00;0.85;;;;;;;13.51;30.90;93422.69;5078090;28;20025;-84
2023/12/23 01:32:26;;;;;;;0.40;0.30;;;;;;;13.50;30.92;93421.88;5076860;28;20345;-84
2023/12/23 01:34:52;;;;;;;1.83;0.70;;;;;;;13.54;30.52;93420.19;5077943;28;20032;-84
2023/12/23 01:37:17;;;;;;;0.68;0.35;;;;;;;13.59;31.19;93421.13;5080813;28;20345;-84
2023/12/23 01:39:43;;;;;;;2.03;0.50;;;;;;;13.37;31.30;93418.28;5090346;28;20032;-84
2023/12/23 01:42:08;;;;;;;1.17;0.20;;;;;;;13.59;30.27;93435.06;5097002;28;20375;-84
2023/12/23 01:44:34;;;;;;;0.40;0.30;;;;;;;13.53;30.97;93425.78;5098053;28;20024;-84
2023/12/23 01:47:01;;;;;;;0.70;0.40;;;;;;;13.20;32.27;93423.50;5097302;28;20077;-84
2023/12/23 01:49:28;;;;;;;0.40;0.30;;;;;;;13.09;31.81;93436.97;5080662;28;20036;-84
2023/12/23 01:51:55;;;;;;;0.80;0.40;;;;;;;13.01;31.85;93433.22;5076213;28;20392;-84
2023/12/23 01:54:21;;;;;;;1.85;0.70;;;;;;;12.95;32.46;93441.56;5059994;28;20031;-84
2023/12/23 01:56:47;;;;;;;0.98;0.47;;;;;;;12.72;31.66;93434.53;5076125;28;20115;-84
2023/12/23 01:59:13;;;;;;;0.47;0.30;;;;;;;12.94;31.24;93442.63;5076819;28;20040;-84
2023/12/23 02:01:39;;;;;;;0.90;0.30;;;;;;;12.77;32.13;93440.72;5076169;28;20337;-84
2023/12/23 02:04:05;;;;;;;1.67;0.40;;;;;;;12.65;31.72;93438.66;5076181;28;20032;-84
2023/12/23 02:06:30;;;;;;;0.90;0.35;;;;;;;12.67;32.00;93431.25;5059784;28;20036;-84
2023/12/23 02:08:56;;;;;;;0.70;0.45;;;;;;;13.12;31.06;93448.69;5076079;28;20028;-84
2023/12/23 02:11:52;;;;;;;0.75;0.45;;;;;;;13.31;30.58;93452.94;5076078;28;20029;-84
2023/12/23 02:14:28;;;;;;;2.85;0.70;;;;;;;13.29;30.94;93443.50;5091413;28;20024;-84
2023/12/23 02:16:54;;;;;;;0.93;0.50;;;;;;;12.95;32.83;93454.69;5095473;28;20378;-84
2023/12/23 02:19:19;;;;;;;3.83;0.52;;;;;;;13.31;31.03;93461.59;5095716;28;20107;-84
2023/12/23 02:21:45;;;;;;;1.27;0.60;;;;;;;13.08;32.53;93456.44;5083016;28;20089;-83
2023/12/23 02:24:10;;;;;;;2.92;0.90;;;;;;;14.18;30.06;93443.56;5083245;28;20453;-84
2023/12/23 02:26:36;;;;;;;4.75;0.70;;;;;;;13.50;31.55;93439.53;5087957;28;20593;-84
2023/12/23 02:29:02;;;;;;;0.77;0.55;;;;;;;13.34;31.41;93449.69;5086338;28;20070;-84
2023/12/23 02:31:28;;;;;;;0.90;0.70;;;;;;;13.52;30.80;93455.78;5090190;28;20099;-84
2023/12/23 02:33:54;;;;;;;6.43;0.60;;;;;;;12.95;31.81;93454.69;5092663;28;20488;-84
2023/12/23 02:36:21;;;;;;;0.55;0.30;;;;;;;12.64;32.80;93437.88;5076906;28;20082;-84
2023/12/23 02:38:47;;;;;;;0.95;0.40;;;;;;;12.82;31.27;93441.34;5076255;28;20035;-84
2023/12/23 02:41:12;;;;;;;0.57;0.40;;;;;;;12.82;33.81;93445.81;5075693;28;20358;-84
2023/12/23 02:43:38;;;;;;;1.05;0.65;;;;;;;13.04;31.74;93444.97;5081981;28;20115;-84
2023/12/23 02:46:03;;;;;;;1.73;0.70;;;;;;;13.08;30.84;93434.63;5079706;28;20036;-83
2023/12/23 02:48:29;;;;;;;0.40;0.40;;;;;;;12.95;31.48;93442.31;5075006;28;20063;-84
2023/12/23 02:50:54;;;;;;;0.52;0.40;;;;;;;13.13;30.82;93448.41;5059033;28;20067;-84
2023/12/23 02:53:20;;;;;;;2.90;0.60;;;;;;;13.81;29.99;93442.03;5059044;28;20036;-84
2023/12/23 02:55:45;;;;;;;0.70;0.43;;;;;;;13.96;28.90;93445.28;5067087;28;20034;-84
2023/12/23 02:58:10;;;;;;;0.93;0.50;;;;;;;14.16;28.56;93445.75;5074920;28;20034;-84
2023/12/23 03:00:36;;;;;;;1.83;0.85;;;;;;;14.26;28.30;93443.53;5075250;28;20453;-84
2023/12/23 03:03:01;;;;;;;1.48;0.80;;;;;;;14.12;28.43;93456.88;5058366;28;20024;-84
2023/12/23 03:05:27;;;;;;;1.17;0.60;;;;;;;14.67;28.63;93454.59;5084865;28;20020;-83
2023/12/23 03:07:55;;;;;;;1.70;0.60;;;;;;;14.64;28.61;93451.84;5074956;28;20074;-84
2023/12/23 03:10:21;;;;;;;1.63;0.50;;;;;;;14.35;29.21;93455.94;5075186;28;20028;-84
2023/12/23 03:12:47;;;;;;;1.15;0.70;;;;;;;14.56;28.32;93466.56;5075228;28;20020;-83
2023/12/23 03:15:12;;;;;;;2.70;0.70;;;;;;;14.85;27.88;93465.13;5075305;28;20055;-84
2023/12/23 03:17:38;;;;;;;1.75;0.50;;;;;;;15.23;27.34;93459.06;5074869;28;20430;-84
2023/12/23 03:20:04;;;;;;;0.93;0.50;;;;;;;14.76;28.68;93467.78;5058561;28;20047;-83
2023/12/23 03:22:30;;;;;;;1.85;0.52;;;;;;;14.24;29.03;93474.69;5076295;28;20024;-84
2023/12/23 03:24:56;;;;;;;1.45;0.60;;;;;;;13.90;29.12;93468.34;5082818;28;20330;-84
2023/12/23 03:27:21;;;;;;;1.75;0.50;;;;;;;14.32;29.04;93467.09;5094947;28;20024;-83
2023/12/23 03:29:47;;;;;;;0.68;0.40;;;;;;;14.27;29.28;93466.16;5095397;28;20495;-83
2023/12/23 03:32:12;;;;;;;1.42;0.80;;;;;;;14.36;28.35;93460.13;5078572;28;20151;-84
2023/12/23 03:34:40;;;;;;;1.17;0.50;;;;;;;14.56;28.55;93477.09;5076668;28;20416;-84
2023/12/23 03:37:05;;;;;;;2.03;0.50;;;;;;;14.22;28.72;93478.72;5063517;28;20506;-84
2023/12/23 03:39:31;;;;;;;1.40;0.60;;;;;;;14.65;27.94;93458.66;5086806;28;20024;-84
2023/12/23 03:41:56;;;;;;;1.27;0.70;;;;;;;14.91;27.81;93460.44;5083105;28;20429;-85
2023/12/23 03:44:22;;;;;;;0.40;0.40;;;;;;;14.56;28.65;93475.25;5064088;28;20028;-84
2023/12/23 03:46:47;;;;;;;1.30;0.60;;;;;;;14.60;28.61;93482.53;5091632;28;20028;-83
2023/12/23 03:49:13;;;;;;;1.63;0.45;;;;;;;14.91;27.95;93492.88;5096329;28;20023;-83
2023/12/23 03:51:38;;;;;;;0.77;0.43;;;;;;;14.93;28.22;93482.00;5078497;28;20023;-83
2023/12/23 03:54:04;;;;;;;1.10;0.65;;;;;;;14.94;28.61;93488.84;5095016;28;20028;-84
2023/12/23 03:56:30;;;;;;;1.15;0.60;;;;;;;14.73;29.11;93472.94;5085372;28;20085;-83
2023/12/23 03:58:58;;;;;;;2.45;0.60;;;;;;;14.79;28.35;93498.03;5075590;28;20078;-84
2023/12/23 04:01:23;;;;;;;1.23;0.43;;;;;;;14.59;28.68;93491.53;5058662;28;20376;-84
2023/12/23 04:03:49;;;;;;;2.83;0.50;;;;;;;14.26;29.84;93496.22;5074692;28;20070;-84
2023/12/23 04:06:14;;;;;;;0.68;0.47;;;;;;;13.96;30.22;93493.47;5078536;28;20031;-84
2023/12/23 04:08:41;;;;;;;0.73;0.50;;;;;;;14.50;28.86;93489.69;5094815;28;20072;-83
2023/12/23 04:11:06;;;;;;;2.97;0.50;;;;;;;14.47;28.93;93487.66;5094853;28;20035;-83
2023/12/23 04:13:32;;;;;;;1.10;0.50;;;;;;;14.17;29.50;93505.22;5077992;28;20024;-84
2023/12/23 04:15:57;;;;;;;0.43;0.35;;;;;;;14.68;29.21;93514.13;5097926;28;20020;-84
2023/12/23 04:18:22;;;;;;;1.50;0.40;;;;;;;14.49;29.00;93509.25;5079738;28;20480;-83
2023/12/23 04:20:48;;;;;;;0.90;0.40;;;;;;;14.90;28.79;93514.28;5061424;28;20366;-83
2023/12/23 04:23:13;;;;;;;2.42;0.30;;;;;;;14.48;29.31;93512.19;5061398;28;20033;-83
2023/12/23 04:25:39;;;;;;;0.45;0.30;;;;;;;13.96;31.13;93504.00;5078072;28;20028;-83
2023/12/23 04:28:04;;;;;;;0.30;0.30;;;;;;;13.89;30.19;93502.91;5085986;28;20074;-83
2023/12/23 04:30:30;;;;;;;0.80;0.52;;;;;;;13.67;30.29;93494.81;5079263;28;20107;-83
2023/12/23 04:32:59;;;;;;;0.40;0.40;;;;;;;13.60;30.37;93502.38;5077918;28;20024;-83
2023/12/23 04:35:24;;;;;;;0.80;0.32;;;;;;;13.93;30.21;93509.88;5079034;28;20024;-83
2023/12/23 04:37:49;;;;;;;5.13;0.40;;;;;;;14.51;29.45;93501.00;5087071;28;20023;-83
2023/12/23 04:40:15;;;;;;;1.55;0.30;;;;;;;14.37;29.49;93501.19;5078949;28;20029;-83
2023/12/23 04:42:41;;;;;;;3.80;0.50;;;;;;;14.62;29.64;93515.41;5077803;28;20024;-83
2023/12/23 04:45:09;;;;;;;0.50;0.35;;;;;;;15.09;29.43;93514.69;5077735;28;20326;-83
2023/12/23 04:47:34;;;;;;;0.40;0.38;;;;;;;14.76;29.49;93531.06;5080462;28;20031;-84
2023/12/23 04:50:00;;;;;;;0.85;0.30;;;;;;;14.65;29.70;93516.66;5070956;28;20016;-84
2023/12/23 04:52:25;;;;;;;4.40;0.60;;;;;;;14.48;29.83;93514.81;5087398;28;20043;-84
2023/12/23 04:54:51;;;;;;;3.22;0.30;;;;;;;14.60;29.62;93512.31;5085540;28;20097;-84
2023/12/23 04:57:16;;;;;;;1.17;0.30;;;;;;;14.72;30.03;93526.75;5093466;28;20468;-84
2023/12/23 04:59:42;;;;;;;0.30;0.30;;;;;;;14.80;29.31;93533.84;5080906;28;20035;-83
2023/12/23 05:02:08;;;;;;;0.88;0.50;;;;;;;14.50;30.46;93533.72;5081003;28;20031;-84
2023/12/23 05:04:33;;;;;;;1.95;0.50;;;;;;;14.51;30.17;93533.41;5097747;28;20136;-83
2023/12/23 05:06:59;;;;;;;1.25;0.63;;;;;;;14.36;30.06;93526.75;5097065;28;20028;-84
2023/12/23 05:09:24;;;;;;;0.90;0.50;;;;;;;14.26;30.34;93540.22;5091086;28;20020;-83
2023/12/23 05:11:49;;;;;;;2.47;0.55;;;;;;;14.57;30.32;93534.78;5060761;28;20024;-85
2023/12/23 05:14:15;;;;;;;1.10;0.63;;;;;;;14.52;30.75;93560.53;5077442;28;20031;-83
2023/12/23 05:16:40;;;;;;;1.30;0.47;;;;;;;14.32;30.63;93556.66;5076695;28;20051;-83
2023/12/23 05:19:06;;;;;;;1.30;0.50;;;;;;;14.46;30.59;93559.16;5083478;28;20028;-83
2023/12/23 05:21:31;;;;;;;0.85;0.43;;;;;;;14.44;30.50;93556.06;5075779;28;20387;-82
2023/12/23 05:23:57;;;;;;;0.98;0.63;;;;;;;14.80;29.88;93563.63;5076736;28;20020;-82
2023/12/23 05:26:22;;;;;;;0.63;0.57;;;;;;;14.83;30.09;93568.28;5093442;28;20032;-82
2023/12/23 05:28:48;;;;;;;3.00;0.70;;;;;;;15.03;30.19;93573.97;5095618;28;20016;-82
2023/12/23 05:31:13;;;;;;;0.77;0.50;;;;;;;14.90;29.75;93591.53;5079710;28;20119;-82
2023/12/23 05:33:39;;;;;;;1.08;0.45;;;;;;;15.48;29.55;93564.81;5059860;28;20040;-82
2023/12/23 05:36:04;;;;;;;4.65;0.57;;;;;;;14.91;30.25;93574.63;5076632;28;20036;-82
2023/12/23 05:38:30;;;;;;;1.15;0.50;;;;;;;15.07;30.10;93593.38;5076227;28;20075;-81
2023/12/23 05:40:56;;;;;;;0.63;0.47;;;;;;;15.32;29.77;93596.22;5076608;28;20028;-81
2023/12/23 05:43:21;;;;;;;0.90;0.40;;;;;;;15.28;29.89;93603.25;5077734;28;20027;-82
2023/12/23 05:45:47;;;;;;;1.33;0.50;;;;;;;15.30;30.18;93602.94;5076294;28;20095;-81
2023/12/23 05:48:12;;;;;;;0.50;0.32;;;;;;;15.44;29.45;93586.88;5076001;28;20032;-81
2023/12/23 05:50:38;;;;;;;0.60;0.40;;;;;;;15.33;29.86;93607.56;5091773;28;20451;-81
2023/12/23 05:53:03;;;;;;;3.28;0.35;;;;;;;15.35;29.77;93606.19;5075427;28;20024;-81
2023/12/23 05:55:29;;;;;;;0.73;0.30;;;;;;;15.23;30.11;93613.97;5076190;28;20095;-81
2023/12/23 05:57:54;;;;;;;5.68;0.40;;;;;;;14.94;30.20;93600.38;5076902;28;20028;-82
2023/12/23 06:00:20;;;;;;;1.65;0.43;;;;;;;15.08;30.58;93599.41;5075945;28;20068;-82
2023/12/23 06:02:46;;;;;;;0.73;0.30;;;;;;;14.90;30.63;93611.84;5076389;28;20333;-81
2023/12/23 06:05:12;;;;;;;1.92;0.45;;;;;;;15.04;30.50;93615.09;5076197;28;20495;-81
2023/12/23 06:07:37;;;;;;;1.75;0.40;;;;;;;15.06;30.37;93605.03;5075692;28;20349;-82
2023/12/23 06:10:03;;;;;;;1.10;0.40;;;;;;;15.19;29.99;93629.66;5076086;28;20025;-81
2023/12/23 06:12:29;;;;;;;0.68;0.30;;;;;;;15.12;30.60;93634.63;5075980;28;20119;-82
2023/12/23 06:14:56;;;;;;;0.65;0.20;;;;;;;14.92;30.41;93641.31;5077369;28;20031;-81
2023/12/23 06:17:22;;;;;;;0.70;0.40;;;;;;;15.19;30.48;93645.47;5075560;28;20424;-80
2023/12/23 06:19:47;;;;;;;0.60;0.50;;;;;;;15.00;31.12;93637.91;5075841;28;20108;-82
2023/12/23 06:22:13;;;;;;;0.90;0.30;;;;;;;14.86;30.62;93653.91;5075815;28;20060;-81
2023/12/23 06:24:38;;;;;;;0.88;0.45;;;;;;;14.83;30.73;93657.94;5076139;28;20086;-82
2023/12/23 06:27:04;;;;;;;0.57;0.40;;;;;;;15.01;30.75;93665.84;5058859;28;20441;-81
2023/12/23 06:29:30;;;;;;;5.35;0.47;;;;;;;14.77;31.00;93677.63;5075686;28;20031;-81
2023/12/23 06:31:56;;;;;;;1.13;0.40;;;;;;;14.76;31.09;93673.44;5076936;28;20073;-82
2023/12/23 06:34:22;;;;;;;0.55;0.32;;;;;;;14.59;31.58;93681.31;5059342;28;20035;-82
2023/12/23 06:36:47;;;;;;;0.85;0.30;;;;;;;14.44;31.48;93706.28;5074444;28;20115;-81
2023/12/23 06:39:13;;;;;;;1.88;0.60;;;;;;;14.64;31.22;93689.84;5076659;28;20085;-82
2023/12/23 06:41:38;;;;;;;3.33;0.50;;;;;;;14.95;31.04;93719.84;5075626;28;20024;-82
2023/12/23 06:44:04;;;;;;;3.60;0.50;;;;;;;15.09;30.93;93715.19;5075590;28;20430;-80
2023/12/23 06:46:29;;;;;;;0.35;0.35;;;;;;;14.85;31.38;93705.09;5075429;28;20020;-81
2023/12/23 06:48:55;;;;;;;0.50;0.30;;;;;;;14.69;31.41;93708.16;5075331;28;20021;-81
2023/12/23 06:51:20;;;;;;;0.38;0.38;;;;;;;14.40;32.16;93711.38;5075526;28;20025;-81
2023/12/23 06:53:47;;;;;;;0.57;0.30;;;;;;;14.66;31.42;93718.56;5075414;28;20031;-81
2023/12/23 06:56:13;;;;;;;0.60;0.30;;;;;;;14.64;31.74;93716.22;5075464;28;20370;-81
2023/12/23 06:58:38;;;;;;;1.02;0.50;;;;;;;14.60;31.91;93709.22;5074900;28;20016;-81
2023/12/23 07:01:04;;;;;;;0.40;0.40;;;;;;;14.48;31.65;93702.69;5079625;28;20039;-82
2023/12/23 07:03:30;;;;;;;0.73;0.40;;;;;;;14.40;32.23;93704.22;5095456;28;20024;-81
2023/12/23 07:05:56;;;;;;;0.35;0.25;;;;;;;14.10;32.68;93719.81;5079134;28;20060;-84
2023/12/23 07:08:22;;;;;;;3.17;0.32;;;;;;;14.31;32.15;93715.84;5094957;28;20100;-87
2023/12/23 07:10:48;;;;;;;1.85;0.40;;;;;;;14.55;32.02;93700.41;5095691;28;20102;-85
2023/12/23 07:13:13;;;;;;;0.47;0.35;;;;;;;14.45;32.58;93705.94;5095645;28;20035;-85
2023/12/23 07:15:44;;;;;;;0.52;0.30;;;;;;;14.75;31.96;93698.25;5095685;28;20345;-88
2023/12/23 07:18:10;;;;;;;0.57;0.40;;;;;;;14.94;31.58;93702.47;5095446;28;20027;-86
2023/12/23 07:20:36;;;;;;;1.02;0.40;;;;;;;14.78;32.15;93705.56;5095361;28;20020;-87
2023/12/23 07:23:01;;;;;;;0.77;0.40;;;;;;;15.16;31.26;93698.09;5078984;28;20106;-86
2023/12/23 07:25:27;;;;;;;1.27;0.50;;;;;;;14.80;32.48;93715.78;5079047;28;20356;-87
2023/12/23 07:27:52;;;;;;;0.65;0.30;;;;;;;14.69;32.25;93725.84;5095177;28;20032;-86
2023/12/23 07:30:17;;;;;;;1.08;0.38;;;;;;;14.94;31.84;93711.16;5095321;28;20017;-88
2023/12/23 07:32:43;;;;;;;0.55;0.40;;;;;;;14.99;31.92;93731.31;5096216;28;20024;-87
2023/12/23 07:35:08;;;;;;;1.73;0.45;;;;;;;15.17;31.56;93753.19;5078777;28;20069;-85
2023/12/23 07:37:34;;;;;;;2.25;0.40;;;;;;;15.09;32.01;93720.47;5094907;28;20026;-86
2023/12/23 07:39:59;;;;;;;0.90;0.40;;;;;;;15.17;32.01;93728.66;5095138;28;20429;-86
2023/12/23 07:42:25;;;;;;;1.27;0.50;;;;;;;15.17;32.17;93745.28;5095212;28;20322;-88
2023/12/23 07:44:50;;;;;;;0.68;0.32;;;;;;;15.23;32.01;93753.81;5095769;28;20073;-86
2023/12/23 07:47:16;;;;;;;0.77;0.40;;;;;;;15.25;31.97;93746.38;5078251;28;20028;-82
2023/12/23 07:49:42;;;;;;;2.67;0.90;;;;;;;14.98;32.78;93748.22;5077705;28;20127;-82
2023/12/23 07:52:07;;;;;;;1.17;0.60;;;;;;;15.11;32.40;93759.72;5098921;28;20020;-82
2023/12/23 07:54:33;;;;;;;1.35;0.50;;;;;;;15.18;31.99;93740.78;5082052;28;20030;-82
2023/12/23 07:56:59;;;;;;;5.88;0.80;;;;;;;15.39;32.14;93709.25;5081221;28;20083;-82
2023/12/23 07:59:24;;;;;;;0.80;0.50;;;;;;;15.73;31.35;93734.03;5061518;28;20036;-82
2023/12/23 08:01:50;;;;;;;0.52;0.40;;;;;;;15.62;31.96;93730.16;5078140;28;20376;-82
2023/12/23 08:04:15;;;;;;;2.88;0.40;;;;;;;15.52;32.12;93731.28;5078349;28;20021;-82
2023/12/23 08:06:41;;;;;;;1.23;0.68;;;;;;;15.55;31.63;93747.25;5076043;28;20027;-82
2023/12/23 08:09:07;;;;;;;1.00;0.57;;;;;;;15.38;32.09;93742.78;5098325;28;20020;-82
2023/12/23 08:11:34;;;;;;;1.35;0.50;;;;;;;15.20;32.52;93742.03;5068271;28;20394;-82
2023/12/23 08:14:00;;;;;;;2.05;0.40;;;;;;;15.32;32.16;93722.16;5077964;28;20069;-82
2023/12/23 08:16:25;;;;;;;4.57;0.50;;;;;;;15.22;32.09;93739.09;5079297;28;20451;-82
2023/12/23 08:18:51;;;;;;;0.70;0.30;;;;;;;15.23;32.50;93719.53;5077447;28;20028;-82
2023/12/23 08:21:16;;;;;;;0.43;0.40;;;;;;;15.44;32.13;93742.63;5061328;28;20035;-82
2023/12/23 08:23:41;;;;;;;0.30;0.30;;;;;;;15.31;32.92;93745.13;5079006;28;20676;-82
2023/12/23 08:26:08;;;;;;;0.30;0.30;;;;;;;15.35;32.97;93755.81;5079002;28;20449;-83
2023/12/23 08:28:33;;;;;;;0.70;0.40;;;;;;;15.44;32.62;93766.38;5077413;28;20127;-83
2023/12/23 08:31:01;;;;;;;1.08;0.50;;;;;;;15.46;32.47;93749.16;5061189;28;20060;-83
2023/12/23 08:33:27;;;;;;;0.68;0.50;;;;;;;15.44;32.23;93758.47;5073369;28;20020;-83
2023/12/23 08:35:52;;;;;;;1.80;0.68;;;;;;;15.59;31.76;93747.41;5097529;28;20035;-83
2023/12/23 08:38:18;;;;;;;1.38;0.43;;;;;;;15.53;32.66;93749.44;5097375;28;20032;-83
2023/12/23 08:40:43;;;;;;;0.73;0.40;;;;;;;15.60;32.42;93735.00;5097563;28;20426;-83
2023/12/23 08:43:10;;;;;;;1.00;0.30;;;;;;;15.75;32.35;93742.41;5097656;28;20036;-83
2023/12/23 08:45:35;;;;;;;0.60;0.40;;;;;;;15.62;32.35;93741.50;5094542;28;20046;-83
2023/12/23 08:48:01;;;;;;;0.45;0.32;;;;;;;15.57;32.32;93754.88;5078192;28;20114;-83
2023/12/23 08:50:26;;;;;;;3.35;0.60;;;;;;;15.49;33.27;93739.81;5077464;28;20147;-83
2023/12/23 08:52:52;;;;;;;1.30;0.60;;;;;;;15.50;33.76;93744.03;5078603;28;20028;-84
2023/12/23 08:55:17;;;;;;;0.70;0.40;;;;;;;15.65;31.94;93753.28;5077552;28;20386;-83
2023/12/23 08:57:43;;;;;;;0.47;0.40;;;;;;;15.37;32.62;93740.44;5098211;28;20109;-83
2023/12/23 09:00:10;;;;;;;2.35;0.50;;;;;;;15.62;32.04;93757.34;5097635;28;20032;-83
2023/12/23 09:02:35;;;;;;;0.80;0.50;;;;;;;15.69;31.83;93752.34;5097569;28;20023;-84
2023/12/23 09:05:01;;;;;;;1.55;0.50;;;;;;;15.55;32.38;93759.69;5097622;28;20115;-83
2023/12/23 09:07:26;;;;;;;1.60;0.68;;;;;;;15.55;32.57;93768.38;5097117;28;20024;-83
2023/12/23 09:09:52;;;;;;;1.80;0.60;;;;;;;15.75;32.33;93752.19;5098133;28;20020;-84
2023/12/23 09:12:19;;;;;;;3.63;0.60;;;;;;;16.07;34.17;93763.31;5098538;28;20027;-84
2023/12/23 09:14:47;;;;;;;1.05;0.50;;;;;;;15.99;33.22;93759.59;5096930;28;20341;-84
2023/12/23 09:17:12;;;;;;;3.30;0.52;;;;;;;15.82;31.96;93760.41;5097254;28;20020;-83
2023/12/23 09:19:38;;;;;;;2.17;0.70;;;;;;;15.77;32.26;93757.91;5098395;28;20031;-83
2023/12/23 09:22:03;;;;;;;0.80;0.50;;;;;;;15.63;32.32;93755.47;5097314;28;20027;-83
2023/12/23 09:24:29;;;;;;;1.38;0.50;;;;;;;16.00;31.40;93752.47;5097158;28;20020;-83
2023/12/23 09:26:54;;;;;;;0.68;0.38;;;;;;;16.32;30.24;93761.66;5096847;28;20023;-84
2023/12/23 09:29:20;;;;;;;0.65;0.47;;;;;;;16.21;32.57;93761.25;5072024;28;20012;-84
2023/12/23 09:31:45;;;;;;;0.80;0.40;;;;;;;16.28;31.69;93759.97;5097137;28;20027;-84
2023/12/23 09:34:10;;;;;;;1.42;0.50;;;;;;;16.40;32.04;93779.34;5098227;28;20026;-84
2023/12/23 09:36:36;;;;;;;0.50;0.40;;;;;;;16.48;32.93;93775.09;5096312;28;20352;-84
2023/12/23 09:39:02;;;;;;;1.83;0.43;;;;;;;16.64;31.82;93766.63;5096243;28;20032;-84
2023/12/23 09:41:27;;;;;;;0.98;0.55;;;;;;;16.73;31.39;93770.00;5097840;28;20054;-84
2023/12/23 09:43:53;;;;;;;1.30;0.60;;;;;;;16.75;31.72;93770.44;5097815;28;20341;-84
2023/12/23 09:46:19;;;;;;;0.73;0.40;;;;;;;16.98;30.24;93774.66;5096725;28;20107;-84
2023/12/23 09:48:45;;;;;;;2.53;0.40;;;;;;;17.28;30.24;93767.47;5092763;28;20020;-84
2023/12/23 09:51:11;;;;;;;0.50;0.38;;;;;;;17.41;30.59;93764.88;5076556;28;20020;-84
2023/12/23 09:53:37;;;;;;;0.77;0.47;;;;;;;17.36;30.93;93757.91;5076012;28;20020;-83
2023/12/23 09:56:04;;;;;;;1.00;0.40;;;;;;;17.48;31.12;93765.91;5059687;28;20028;-83
2023/12/23 09:58:29;;;;;;;1.40;0.70;;;;;;;17.52;30.19;93760.72;5059193;28;20028;-84
2023/12/23 10:00:55;;;;;;;0.73;0.50;;;;;;;17.78;30.53;93746.44;5075855;28;20156;-83
2023/12/23 10:03:22;;;;;;;1.40;0.43;;;;;;;17.80;29.44;93776.81;5077266;28;20027;-84
2023/12/23 10:05:47;;;;;;;11.40;0.88;;;;;;;17.89;29.29;93762.69;5059607;28;20391;-85
2023/12/23 10:08:13;;;;;;;0.80;0.50;;;;;;;17.96;29.77;93768.22;5058920;28;20123;-82
2023/12/23 10:10:38;;;;;;;0.40;0.40;;;;;;;17.98;28.64;93759.97;5059266;28;20136;-84
2023/12/23 10:13:04;;;;;;;0.73;0.47;;;;;;;17.93;28.89;93763.59;5075897;28;20063;-84
2023/12/23 10:15:29;;;;;;;0.77;0.60;;;;;;;17.85;29.09;93761.78;5076787;28;20342;-84
2023/12/23 10:17:55;;;;;;;1.17;0.50;;;;;;;17.74;28.99;93751.63;5059041;28;20042;-85
2023/12/23 10:20:21;;;;;;;0.60;0.40;;;;;;;17.65;30.60;93738.47;5075676;28;20031;-85
2023/12/23 10:22:47;;;;;;;0.80;0.45;;;;;;;17.63;29.85;93753.91;5075538;28;20024;-84
2023/12/23 10:25:13;;;;;;;1.70;0.30;;;;;;;17.55;31.30;93736.22;5075664;28;20032;-84
2023/12/23 10:27:43;;;;;;;0.52;0.40;;;;;;;17.58;30.22;93743.53;5075167;28;20031;-84
2023/12/23 10:30:10;;;;;;;0.60;0.40;;;;;;;17.78;30.27;93730.53;5075578;28;20023;-84
2023/12/23 10:32:39;;;;;;;1.13;0.40;;;;;;;17.89;29.01;93741.50;5075517;28;20086;-85
2023/12/23 10:35:14;;;;;;;0.82;0.50;;;;;;;18.00;30.53;93729.34;5059050;28;20024;-84
2023/12/23 10:37:40;;;;;;;1.27;0.70;;;;;;;18.11;29.01;93728.97;5090535;28;20035;-85
2023/12/23 10:40:20;;;;;;;1.50;0.50;;;;;;;18.09;29.56;93724.75;5079074;28;20384;-84
2023/12/23 10:42:47;;;;;;;0.93;0.30;;;;;;;18.19;29.08;93720.13;5079094;28;20031;-84
2023/12/23 10:45:13;;;;;;;0.73;0.50;;;;;;;18.05;29.01;93725.75;5095958;28;20024;-85
2023/12/23 10:47:39;;;;;;;1.42;0.70;;;;;;;17.95;29.39;93729.56;5095811;28;20031;-85
2023/12/23 10:50:06;;;;;;;1.65;0.60;;;;;;;18.04;29.44;93711.75;5095672;28;20055;-84
2023/12/23 10:52:32;;;;;;;1.75;0.90;;;;;;;18.10;28.91;93720.25;5095683;28;20089;-84
2023/12/23 10:55:02;;;;;;;1.35;0.60;;;;;;;18.35;29.84;93710.41;5079393;28;20449;-83
2023/12/23 10:57:28;;;;;;;0.55;0.50;;;;;;;18.33;31.05;93704.66;5095502;28;20115;-84
2023/12/23 10:59:54;;;;;;;1.05;0.50;;;;;;;18.34;30.10;93697.47;5078594;28;20036;-84
2023/12/23 11:02:24;;;;;;;1.15;0.65;;;;;;;18.17;28.84;93703.78;5095547;28;20035;-84
2023/12/23 11:04:50;;;;;;;4.75;0.65;;;;;;;18.28;30.58;93712.81;5095490;28;20130;-84
2023/12/23 11:07:17;;;;;;;0.88;0.50;;;;;;;18.23;28.59;93705.88;5093941;28;20420;-84
2023/12/23 11:09:45;;;;;;;1.20;0.68;;;;;;;18.33;28.85;93701.22;5079130;28;20132;-84
2023/12/23 11:12:11;;;;;;;0.95;0.57;;;;;;;18.47;28.98;93696.34;5089048;28;20051;-83
2023/12/23 11:14:37;;;;;;;5.47;0.47;;;;;;;18.53;28.63;93688.19;5075323;28;20029;-84
2023/12/23 11:17:17;;;;;;;0.85;0.50;;;;;;;18.55;28.70;93688.63;5075094;28;20041;-84
2023/12/23 11:19:42;;;;;;;1.77;0.88;;;;;;;18.65;29.22;93683.63;5058700;28;20039;-84
2023/12/23 11:22:25;;;;;;;3.47;0.95;;;;;;;18.67;28.35;93691.25;5075215;28;20107;-84
2023/12/23 11:24:51;;;;;;;2.95;0.80;;;;;;;18.72;28.70;93675.09;5078734;28;20380;-83
2023/12/23 11:27:36;;;;;;;1.00;0.57;;;;;;;18.72;29.06;93677.75;5062354;28;20086;-84